Terminal Aerodrome Forecast
Issued by NWS

Current Version | Previous Version | Text Only | Print | Product List | Glossary Off
Versions: 1 2 3 4 5 6 7 8 9 10 11 12 13 14 15 16 17

000
FTUS44 KSJT 030500
TAFSOA
TAF
KSOA 030520Z 0306/0406 15010KT P6SM SKC
     FM031000 16007KT 6SM BR BKN015
     FM031700 17013G20KT P6SM SCT250=

USA.gov is the U.S. government's official web portal to all federal, state and local government web resources and services.